Time;durP1;ratioP1;P1;durP2;ratioP2;P2;SDS_P1;SDS_P2;PMS_P1;PMS_P2;Temp;Humidity;BMP_temperature;BMP_pressure;BME280_temperature;BME280_humidity;BME280_pressure;Samples;Min_cycle;Max_cycle;Signal;HPM_P1;HPM_P2
2024/01/12 00:00:46;;;;;;;132.00;62.95;;;15.70;51.20;;;;;;4881774;28;92956;-84
2024/01/12 00:03:12;;;;;;;131.93;62.40;;;15.70;51.20;;;;;;4879200;28;89798;-82
2024/01/12 00:05:37;;;;;;;132.77;62.40;;;15.60;51.30;;;;;;4880776;28;89888;-81
2024/01/12 00:08:03;;;;;;;133.52;63.10;;;15.60;51.30;;;;;;4889305;28;90336;-81
2024/01/12 00:10:29;;;;;;;131.52;62.50;;;15.60;51.30;;;;;;4889029;28;90055;-82
2024/01/12 00:12:55;;;;;;;134.25;62.80;;;15.60;51.50;;;;;;4886716;28;90240;-82
2024/01/12 00:15:20;;;;;;;131.55;62.13;;;15.50;51.50;;;;;;4887147;28;89523;-82
2024/01/12 00:17:46;;;;;;;132.05;62.45;;;15.50;51.60;;;;;;4887295;28;90402;-83
2024/01/12 00:20:12;;;;;;;134.85;61.53;;;15.50;51.60;;;;;;4886758;28;93120;-84
2024/01/12 00:22:37;;;;;;;129.85;61.58;;;15.40;51.60;;;;;;4891243;28;90805;-84
2024/01/12 00:25:04;;;;;;;130.43;61.80;;;15.40;51.70;;;;;;4885999;28;91813;-84
2024/01/12 00:27:29;;;;;;;131.15;62.63;;;15.40;51.70;;;;;;4879459;28;89845;-84
2024/01/12 00:29:55;;;;;;;130.85;62.88;;;15.30;51.70;;;;;;4883011;28;92516;-83
2024/01/12 00:32:21;;;;;;;131.23;61.50;;;15.30;51.80;;;;;;4880820;28;93489;-84
2024/01/12 00:34:46;;;;;;;131.25;62.20;;;15.30;51.70;;;;;;4882396;28;89412;-83
2024/01/12 00:37:12;;;;;;;128.77;61.08;;;15.30;51.70;;;;;;4883311;28;89943;-83
2024/01/12 00:39:38;;;;;;;131.43;61.88;;;15.20;51.90;;;;;;4885236;28;89404;-84
2024/01/12 00:42:05;;;;;;;129.02;61.88;;;15.20;51.80;;;;;;4886420;28;93688;-83
2024/01/12 00:44:30;;;;;;;129.73;62.22;;;15.30;51.90;;;;;;4886402;28;90374;-83
2024/01/12 00:46:56;;;;;;;130.70;62.38;;;15.20;51.70;;;;;;4888030;28;89439;-83
2024/01/12 00:49:22;;;;;;;131.15;62.20;;;15.20;51.80;;;;;;4884730;28;89861;-82
2024/01/12 00:51:48;;;;;;;131.52;62.30;;;15.10;52.00;;;;;;4890232;28;89897;-85
2024/01/12 00:54:14;;;;;;;132.50;62.33;;;15.10;52.00;;;;;;4884619;28;89146;-85
2024/01/12 00:56:40;;;;;;;130.80;62.10;;;15.10;52.00;;;;;;4891062;28;89533;-85
2024/01/12 00:59:06;;;;;;;131.48;62.33;;;15.00;52.00;;;;;;4884857;28;89297;-84
2024/01/12 01:01:33;;;;;;;130.25;61.95;;;15.10;52.20;;;;;;4885127;28;88916;-83
2024/01/12 01:04:03;;;;;;;130.68;62.28;;;15.00;52.10;;;;;;4885779;28;89861;-84
2024/01/12 01:06:29;;;;;;;131.35;61.83;;;15.10;52.00;;;;;;4883170;28;90346;-83
2024/01/12 01:08:55;;;;;;;129.18;61.33;;;15.00;52.10;;;;;;4888452;28;90693;-81
2024/01/12 01:11:21;;;;;;;132.43;62.65;;;15.10;52.10;;;;;;4887461;28;89832;-82
2024/01/12 01:13:47;;;;;;;129.75;61.45;;;15.00;52.10;;;;;;4884346;28;89462;-82
2024/01/12 01:16:13;;;;;;;129.82;61.15;;;15.00;52.20;;;;;;4882620;28;89386;-84
2024/01/12 01:18:38;;;;;;;129.18;61.20;;;15.00;52.20;;;;;;4887091;28;92375;-85
2024/01/12 01:21:04;;;;;;;130.02;60.97;;;15.00;52.30;;;;;;4887059;28;90379;-83
2024/01/12 01:23:30;;;;;;;129.27;61.78;;;15.00;52.20;;;;;;4883606;28;89061;-85
2024/01/12 01:25:55;;;;;;;131.68;61.35;;;14.90;52.40;;;;;;4887721;28;88594;-85
2024/01/12 01:28:21;;;;;;;128.05;60.55;;;14.90;52.50;;;;;;4885992;28;93373;-86
2024/01/12 01:30:47;;;;;;;130.27;61.00;;;14.90;52.50;;;;;;4884348;28;90051;-86
2024/01/12 01:33:13;;;;;;;129.73;60.58;;;14.90;52.40;;;;;;4868378;28;91910;-81
2024/01/12 01:35:39;;;;;;;130.10;61.97;;;14.80;52.50;;;;;;4883894;28;89101;-81
2024/01/12 01:38:05;;;;;;;128.65;61.03;;;14.80;52.70;;;;;;4886335;28;90000;-81
2024/01/12 01:40:30;;;;;;;130.80;61.40;;;14.80;52.50;;;;;;4886107;28;89855;-81
2024/01/12 01:42:56;;;;;;;128.85;61.53;;;14.80;52.60;;;;;;4886450;28;89597;-81
2024/01/12 01:45:22;;;;;;;128.93;61.30;;;14.80;52.60;;;;;;4879234;28;90174;-81
2024/01/12 01:47:47;;;;;;;128.55;61.17;;;14.80;52.60;;;;;;4879250;28;92449;-82
2024/01/12 01:50:15;;;;;;;127.82;60.72;;;14.80;52.50;;;;;;4880650;28;93514;-81
2024/01/12 01:52:44;;;;;;;128.35;60.67;;;14.70;52.80;;;;;;4878995;28;89392;-81
2024/01/12 01:55:12;;;;;;;128.40;61.28;;;14.70;52.90;;;;;;4885095;28;89369;-82
2024/01/12 01:57:40;;;;;;;127.47;60.58;;;14.70;52.80;;;;;;4884718;28;90664;-81
2024/01/12 02:00:06;;;;;;;128.57;61.00;;;14.70;52.90;;;;;;4881674;28;93218;-81
2024/01/12 02:02:32;;;;;;;129.27;61.28;;;14.60;52.90;;;;;;4875871;28;90249;-81
2024/01/12 02:05:00;;;;;;;127.50;61.10;;;14.60;52.80;;;;;;4885900;28;89781;-79
2024/01/12 02:07:26;;;;;;;127.05;60.60;;;14.60;52.90;;;;;;4885338;28;90265;-76
2024/01/12 02:09:52;;;;;;;130.50;61.05;;;14.60;52.80;;;;;;4883783;28;91207;-80
2024/01/12 02:12:17;;;;;;;130.00;60.75;;;14.60;52.90;;;;;;4881484;28;90389;-76
2024/01/12 02:14:43;;;;;;;125.85;60.72;;;14.60;52.90;;;;;;4889195;28;89040;-78
2024/01/12 02:17:09;;;;;;;128.73;61.00;;;14.60;52.90;;;;;;4887799;28;91060;-76
2024/01/12 02:19:34;;;;;;;126.00;60.45;;;14.60;52.90;;;;;;4887576;28;92556;-76
2024/01/12 02:22:00;;;;;;;126.00;60.38;;;14.50;53.00;;;;;;4886665;28;90627;-76
2024/01/12 02:24:26;;;;;;;129.45;61.13;;;14.60;52.90;;;;;;4892654;28;89747;-76
2024/01/12 02:26:51;;;;;;;126.30;60.28;;;14.60;52.90;;;;;;4890010;28;89339;-76
2024/01/12 02:29:17;;;;;;;126.85;60.35;;;14.50;53.00;;;;;;4890833;28;89974;-75
2024/01/12 02:31:43;;;;;;;127.60;60.35;;;14.50;53.00;;;;;;4885723;28;92011;-77
2024/01/12 02:34:10;;;;;;;127.32;60.17;;;14.50;53.20;;;;;;4891169;28;90275;-76
2024/01/12 02:36:36;;;;;;;125.97;60.03;;;14.40;53.10;;;;;;4886733;28;91020;-77
2024/01/12 02:39:02;;;;;;;125.72;60.22;;;14.40;53.20;;;;;;4894393;28;89895;-76
2024/01/12 02:41:27;;;;;;;127.75;59.25;;;14.50;53.30;;;;;;4890289;28;91501;-80
2024/01/12 02:43:53;;;;;;;126.78;60.28;;;14.40;53.20;;;;;;4888635;28;89566;-81
2024/01/12 02:46:19;;;;;;;126.25;59.92;;;14.40;53.30;;;;;;4887920;28;90999;-81
2024/01/12 02:48:44;;;;;;;124.65;59.78;;;14.40;53.40;;;;;;4889052;28;93911;-82
2024/01/12 02:51:10;;;;;;;126.40;59.75;;;14.40;53.40;;;;;;4890539;28;89687;-81
2024/01/12 02:53:35;;;;;;;125.97;60.58;;;14.30;53.50;;;;;;4887710;28;89301;-80
2024/01/12 02:56:01;;;;;;;125.85;59.75;;;14.30;53.50;;;;;;4894674;28;89793;-80
2024/01/12 02:58:27;;;;;;;126.40;60.13;;;14.30;54.00;;;;;;4891415;28;89801;-79
2024/01/12 03:00:53;;;;;;;125.25;59.60;;;14.30;53.50;;;;;;4889241;28;89192;-80
2024/01/12 03:03:19;;;;;;;125.65;59.67;;;14.30;53.50;;;;;;4888677;28;88565;-80
2024/01/12 03:05:45;;;;;;;125.80;59.60;;;14.30;53.60;;;;;;4891428;28;89546;-81
2024/01/12 03:08:11;;;;;;;126.65;59.33;;;14.30;53.50;;;;;;4891053;28;89541;-80
2024/01/12 03:10:37;;;;;;;129.30;59.67;;;14.30;53.70;;;;;;4890266;28;90036;-80
2024/01/12 03:13:03;;;;;;;125.18;59.28;;;14.20;53.70;;;;;;4895478;28;89592;-80
2024/01/12 03:15:29;;;;;;;125.95;59.17;;;14.20;53.70;;;;;;4884762;28;93412;-80
2024/01/12 03:17:56;;;;;;;124.40;59.08;;;14.20;53.80;;;;;;4882491;28;92437;-80
2024/01/12 03:20:22;;;;;;;127.40;59.83;;;14.20;53.80;;;;;;4890261;28;89302;-80
2024/01/12 03:22:48;;;;;;;126.80;60.45;;;14.20;53.70;;;;;;4889017;28;89349;-81
2024/01/12 03:25:13;;;;;;;125.75;58.83;;;14.20;53.80;;;;;;4887325;28;90158;-79
2024/01/12 03:27:39;;;;;;;123.82;58.67;;;14.20;53.80;;;;;;4886990;28;88908;-80
2024/01/12 03:30:05;;;;;;;125.00;59.90;;;14.20;53.90;;;;;;4887490;28;88655;-79
2024/01/12 03:32:33;;;;;;;125.25;59.15;;;14.20;53.90;;;;;;4883430;28;89131;-80
2024/01/12 03:34:59;;;;;;;126.78;59.50;;;14.20;53.90;;;;;;4887984;28;91394;-80
2024/01/12 03:37:24;;;;;;;127.65;59.47;;;14.20;53.90;;;;;;4890143;28;90091;-81
2024/01/12 03:39:50;;;;;;;122.18;58.75;;;14.10;53.90;;;;;;4890724;28;90052;-81
2024/01/12 03:42:16;;;;;;;125.80;58.67;;;14.10;53.90;;;;;;4894218;28;91275;-79
2024/01/12 03:44:41;;;;;;;125.03;58.58;;;14.10;54.00;;;;;;4887293;28;90394;-75
2024/01/12 03:47:07;;;;;;;123.60;58.45;;;14.10;53.90;;;;;;4883991;28;91434;-76
2024/01/12 03:49:33;;;;;;;124.88;59.47;;;14.10;53.90;;;;;;4890546;28;89657;-76
2024/01/12 03:51:59;;;;;;;123.70;58.42;;;14.10;54.60;;;;;;4883590;28;89445;-74
2024/01/12 03:54:24;;;;;;;128.07;58.72;;;14.10;54.00;;;;;;4885507;28;91471;-77
2024/01/12 03:56:50;;;;;;;123.70;58.40;;;14.10;54.00;;;;;;4886032;28;90041;-73
2024/01/12 03:59:16;;;;;;;125.13;58.90;;;14.10;54.10;;;;;;4885022;28;90434;-78
2024/01/12 04:01:46;;;;;;;126.10;58.90;;;14.00;54.10;;;;;;4885748;28;90187;-74
2024/01/12 04:04:12;;;;;;;127.32;59.28;;;14.00;54.10;;;;;;4888337;28;91060;-78
2024/01/12 04:06:39;;;;;;;125.15;58.60;;;14.00;54.20;;;;;;4887933;28;89856;-74
2024/01/12 04:09:04;;;;;;;126.25;58.92;;;14.00;54.20;;;;;;4886214;28;89922;-75
2024/01/12 04:11:30;;;;;;;127.45;58.95;;;14.00;54.20;;;;;;4890552;28;89404;-74
2024/01/12 04:13:56;;;;;;;124.00;58.42;;;14.00;54.20;;;;;;4883414;28;91240;-74
2024/01/12 04:16:22;;;;;;;126.47;59.17;;;14.00;54.30;;;;;;4886217;28;89827;-79
2024/01/12 04:18:47;;;;;;;127.03;58.78;;;14.00;54.30;;;;;;4885521;28;90240;-77
2024/01/12 04:21:13;;;;;;;125.97;58.47;;;14.00;54.30;;;;;;4887608;28;89998;-79
2024/01/12 04:23:40;;;;;;;123.15;58.55;;;13.90;54.30;;;;;;4884944;28;90648;-75
2024/01/12 04:26:06;;;;;;;123.03;57.97;;;13.90;54.40;;;;;;4888654;28;90242;-75
2024/01/12 04:28:32;;;;;;;128.50;59.03;;;13.90;54.50;;;;;;4885348;28;89543;-76
2024/01/12 04:31:00;;;;;;;125.13;58.28;;;13.90;54.40;;;;;;4888492;28;90079;-76
2024/01/12 04:33:25;;;;;;;124.53;58.63;;;13.90;55.10;;;;;;4889761;28;90263;-75
2024/01/12 04:35:51;;;;;;;123.72;58.50;;;13.90;54.50;;;;;;4887326;28;89392;-80
2024/01/12 04:38:17;;;;;;;126.03;58.90;;;13.90;54.60;;;;;;4886694;28;90258;-84
2024/01/12 04:40:43;;;;;;;124.78;58.60;;;13.90;54.60;;;;;;4889960;28;88046;-83
2024/01/12 04:43:08;;;;;;;126.50;58.67;;;13.90;54.60;;;;;;4890539;28;90329;-83
2024/01/12 04:45:34;;;;;;;123.90;58.33;;;13.90;54.60;;;;;;4880708;28;93702;-81
2024/01/12 04:47:59;;;;;;;124.05;58.50;;;13.90;54.60;;;;;;4879078;28;90742;-79
2024/01/12 04:50:25;;;;;;;125.53;58.10;;;13.90;54.70;;;;;;4877490;28;89746;-79
2024/01/12 04:52:52;;;;;;;127.32;58.50;;;13.90;54.70;;;;;;4882177;28;90188;-79
2024/01/12 04:55:18;;;;;;;124.25;58.28;;;13.80;54.70;;;;;;4890621;28;89109;-81
2024/01/12 04:57:44;;;;;;;124.88;57.75;;;13.80;54.90;;;;;;4884735;28;89542;-81
2024/01/12 05:00:10;;;;;;;125.35;58.25;;;13.80;54.90;;;;;;4889362;28;89886;-82
2024/01/12 05:02:36;;;;;;;123.03;57.90;;;13.80;54.90;;;;;;4887830;28;89335;-82
2024/01/12 05:05:05;;;;;;;121.60;57.70;;;13.80;55.00;;;;;;4884440;28;90193;-82
2024/01/12 05:07:30;;;;;;;123.35;58.13;;;13.80;55.10;;;;;;4886431;28;89031;-82
2024/01/12 05:09:56;;;;;;;123.82;57.40;;;13.80;55.10;;;;;;4885206;28;89689;-82
2024/01/12 05:12:22;;;;;;;122.00;57.72;;;13.80;55.20;;;;;;4886538;28;91223;-82
2024/01/12 05:14:48;;;;;;;121.72;57.88;;;13.70;55.20;;;;;;4883979;28;90134;-82
2024/01/12 05:17:14;;;;;;;124.65;57.95;;;13.80;55.20;;;;;;4882849;28;89507;-81
2024/01/12 05:19:39;;;;;;;122.25;57.65;;;13.70;55.20;;;;;;4876478;28;94170;-82
2024/01/12 05:22:05;;;;;;;121.40;57.20;;;13.70;55.20;;;;;;4880486;28;92535;-83
2024/01/12 05:24:31;;;;;;;122.13;57.50;;;13.70;55.30;;;;;;4879567;28;91529;-82
2024/01/12 05:26:58;;;;;;;122.95;57.63;;;13.70;55.40;;;;;;4881190;28;89418;-82
2024/01/12 05:29:23;;;;;;;122.82;57.75;;;13.70;55.50;;;;;;4883193;28;88837;-85
2024/01/12 05:31:49;;;;;;;121.65;57.42;;;13.70;55.50;;;;;;4880859;28;89760;-82
2024/01/12 05:34:15;;;;;;;121.97;56.90;;;13.70;55.60;;;;;;4884619;28;89850;-82
2024/01/12 05:36:40;;;;;;;121.13;57.45;;;13.70;55.50;;;;;;4883047;28;89716;-82
2024/01/12 05:39:06;;;;;;;123.20;57.50;;;13.70;55.50;;;;;;4879658;28;89793;-82
2024/01/12 05:41:32;;;;;;;121.72;57.00;;;13.70;55.60;;;;;;4879116;28;93376;-82
2024/01/12 05:43:58;;;;;;;122.20;57.35;;;13.70;55.60;;;;;;4883143;28;90503;-84
2024/01/12 05:46:27;;;;;;;123.07;57.15;;;13.60;55.60;;;;;;4879493;28;89580;-83
2024/01/12 05:48:53;;;;;;;122.07;57.28;;;13.60;55.60;;;;;;4879574;28;89662;-85
2024/01/12 05:51:19;;;;;;;122.80;57.70;;;13.60;55.70;;;;;;4879322;28;89298;-86
2024/01/12 05:53:45;;;;;;;120.60;57.17;;;13.60;55.80;;;;;;4879986;28;92512;-86
2024/01/12 05:56:11;;;;;;;120.95;57.38;;;13.60;55.80;;;;;;4883365;28;89560;-85
2024/01/12 05:58:36;;;;;;;122.25;56.78;;;13.60;55.80;;;;;;4884877;28;91595;-85
2024/01/12 06:01:02;;;;;;;119.78;56.65;;;13.60;55.80;;;;;;4878107;28;93803;-82
2024/01/12 06:03:28;;;;;;;120.63;57.00;;;13.60;55.80;;;;;;4883610;28;90304;-83
2024/01/12 06:05:55;;;;;;;121.57;57.03;;;13.50;55.90;;;;;;4879424;28;90073;-82
2024/01/12 06:08:20;;;;;;;120.75;57.42;;;13.60;56.00;;;;;;4887283;28;89060;-84
2024/01/12 06:10:46;;;;;;;122.38;57.20;;;13.60;55.90;;;;;;4879252;28;93622;-83
2024/01/12 06:13:12;;;;;;;123.18;57.17;;;13.60;55.90;;;;;;4882754;28;90339;-85
2024/01/12 06:15:38;;;;;;;121.13;57.00;;;13.50;55.90;;;;;;4884948;28;90271;-84
2024/01/12 06:18:04;;;;;;;122.88;57.20;;;13.50;55.90;;;;;;4879211;28;88396;-84
2024/01/12 06:20:30;;;;;;;120.47;57.13;;;13.50;56.00;;;;;;4878301;28;89719;-85
2024/01/12 06:22:56;;;;;;;121.88;56.88;;;13.50;56.10;;;;;;4881910;28;90309;-87
2024/01/12 06:25:21;;;;;;;121.65;57.13;;;13.50;56.10;;;;;;4882448;28;90690;-80
2024/01/12 06:27:47;;;;;;;121.13;57.25;;;13.50;56.10;;;;;;4885026;28;89127;-80
2024/01/12 06:30:13;;;;;;;122.35;57.33;;;13.50;56.20;;;;;;4887466;28;89073;-82
2024/01/12 06:32:39;;;;;;;119.40;56.47;;;13.50;56.20;;;;;;4884731;28;91199;-79
2024/01/12 06:35:08;;;;;;;121.32;56.90;;;13.50;56.20;;;;;;4895424;28;89189;-81
2024/01/12 06:37:33;;;;;;;119.55;56.78;;;13.50;56.20;;;;;;4895994;28;90495;-81
2024/01/12 06:40:00;;;;;;;122.50;57.15;;;13.40;56.30;;;;;;4901318;28;90147;-80
2024/01/12 06:42:26;;;;;;;120.05;56.70;;;13.40;56.30;;;;;;4899170;28;88821;-82
2024/01/12 06:44:52;;;;;;;121.50;56.65;;;13.40;56.30;;;;;;4893447;28;89066;-81
2024/01/12 06:47:17;;;;;;;122.78;57.05;;;13.40;56.40;;;;;;4877286;28;89469;-83
2024/01/12 06:49:45;;;;;;;120.40;56.60;;;13.50;56.40;;;;;;4882414;28;91047;-82
2024/01/12 06:52:11;;;;;;;122.10;56.58;;;13.40;56.40;;;;;;4882622;28;90575;-81
2024/01/12 06:54:36;;;;;;;120.88;56.22;;;13.40;56.50;;;;;;4881883;28;89916;-83
2024/01/12 06:57:02;;;;;;;119.50;56.55;;;13.40;56.40;;;;;;4877007;28;90189;-80
2024/01/12 06:59:28;;;;;;;119.50;56.67;;;13.50;56.50;;;;;;4876394;28;89048;-81
2024/01/12 07:01:54;;;;;;;119.97;55.70;;;13.40;56.50;;;;;;4883845;28;89809;-80
2024/01/12 07:04:19;;;;;;;124.10;57.13;;;13.40;56.60;;;;;;4885895;28;88958;-81
2024/01/12 07:06:45;;;;;;;120.10;56.60;;;13.40;56.60;;;;;;4882617;28;88408;-81
2024/01/12 07:09:13;;;;;;;118.60;56.60;;;13.40;56.50;;;;;;4885735;28;89630;-80
2024/01/12 07:11:45;;;;;;;118.97;56.00;;;13.30;56.50;;;;;;4882340;28;89984;-81
2024/01/12 07:14:11;;;;;;;120.15;56.42;;;13.30;56.60;;;;;;4876789;28;91514;-84
2024/01/12 07:16:37;;;;;;;120.50;56.33;;;13.30;56.60;;;;;;4881143;28;89386;-85
2024/01/12 07:19:03;;;;;;;121.55;56.67;;;13.30;56.60;;;;;;4882256;28;89842;-85
2024/01/12 07:21:29;;;;;;;119.32;56.50;;;13.40;56.70;;;;;;4884255;28;89853;-84
2024/01/12 07:23:55;;;;;;;118.95;56.15;;;13.40;56.70;;;;;;4885808;28;89770;-85
2024/01/12 07:26:21;;;;;;;120.75;56.13;;;13.30;56.70;;;;;;4883878;28;89204;-85
2024/01/12 07:28:46;;;;;;;120.53;55.63;;;13.30;56.60;;;;;;4883386;28;89350;-85
2024/01/12 07:31:12;;;;;;;120.40;56.35;;;13.30;56.60;;;;;;4886905;28;88827;-85
2024/01/12 07:33:38;;;;;;;120.80;56.13;;;13.40;56.70;;;;;;4885280;28;89240;-85
2024/01/12 07:36:04;;;;;;;120.68;56.28;;;13.30;57.20;;;;;;4887217;28;89313;-86
2024/01/12 07:38:29;;;;;;;119.55;56.42;;;13.30;56.70;;;;;;4884631;28;91019;-77
2024/01/12 07:40:55;;;;;;;120.85;56.28;;;13.30;56.70;;;;;;4886154;28;90181;-78
2024/01/12 07:43:21;;;;;;;119.43;55.92;;;13.30;56.80;;;;;;4883143;28;89402;-77
2024/01/12 07:45:47;;;;;;;119.90;55.55;;;13.30;56.80;;;;;;4883728;28;89331;-77
2024/01/12 07:48:12;;;;;;;121.10;56.53;;;13.30;56.70;;;;;;4881645;28;90140;-79
2024/01/12 07:50:38;;;;;;;123.40;56.17;;;13.30;56.70;;;;;;4880017;28;90072;-76
2024/01/12 07:53:04;;;;;;;119.88;55.92;;;13.30;56.70;;;;;;4883655;28;90110;-78
2024/01/12 07:55:30;;;;;;;121.90;56.58;;;13.30;56.80;;;;;;4882457;28;88809;-84
2024/01/12 07:57:55;;;;;;;119.55;55.92;;;13.30;56.80;;;;;;4881526;28;91645;-84
2024/01/12 08:00:22;;;;;;;120.13;55.95;;;13.30;56.80;;;;;;4881880;28;89332;-84
2024/01/12 08:02:49;;;;;;;122.03;56.28;;;13.20;56.70;;;;;;4881317;28;91339;-76
2024/01/12 08:05:15;;;;;;;119.65;56.05;;;13.20;56.70;;;;;;4884892;28;90386;-78
2024/01/12 08:07:41;;;;;;;121.07;56.15;;;13.20;56.70;;;;;;4877957;28;90689;-76
2024/01/12 08:10:08;;;;;;;123.10;56.63;;;13.20;56.70;;;;;;4878467;28;89834;-80
2024/01/12 08:12:34;;;;;;;119.30;55.38;;;13.20;56.70;;;;;;4876035;28;89434;-83
2024/01/12 08:14:59;;;;;;;119.03;56.53;;;13.20;56.70;;;;;;4880666;28;90909;-83
2024/01/12 08:17:25;;;;;;;117.20;55.28;;;13.30;56.80;;;;;;4884208;28;89237;-82
2024/01/12 08:19:51;;;;;;;118.68;55.40;;;13.20;56.70;;;;;;4887171;28;92911;-82
2024/01/12 08:22:17;;;;;;;119.45;55.65;;;13.20;56.80;;;;;;4878923;28;90150;-83
2024/01/12 08:24:42;;;;;;;122.03;56.38;;;13.20;56.70;;;;;;4887572;28;89208;-82
2024/01/12 08:27:08;;;;;;;119.57;55.97;;;13.20;56.70;;;;;;4884815;28;90023;-83
2024/01/12 08:29:33;;;;;;;118.68;55.72;;;13.20;56.70;;;;;;4883198;28;89824;-83
2024/01/12 08:31:59;;;;;;;118.80;55.42;;;13.20;56.70;;;;;;4877856;28;89082;-83
2024/01/12 08:34:25;;;;;;;117.55;55.67;;;13.20;56.70;;;;;;4882763;28;89687;-82
2024/01/12 08:36:51;;;;;;;117.35;55.28;;;13.20;56.70;;;;;;4881302;28;93746;-80
2024/01/12 08:39:17;;;;;;;117.47;55.35;;;13.20;56.70;;;;;;4880754;28;89617;-81
2024/01/12 08:41:43;;;;;;;119.60;55.67;;;13.20;56.70;;;;;;4882923;28;89136;-88
2024/01/12 08:44:11;;;;;;;118.47;56.03;;;13.20;56.70;;;;;;4881638;28;88627;-84
2024/01/12 08:46:37;;;;;;;123.18;56.38;;;13.30;56.90;;;;;;4884263;28;90729;-87
2024/01/12 08:49:02;;;;;;;120.93;56.38;;;13.50;56.40;;;;;;4880761;28;89682;-84
2024/01/12 08:51:28;;;;;;;120.20;55.78;;;13.60;56.20;;;;;;4880068;28;91089;-82
2024/01/12 08:53:54;;;;;;;120.63;56.03;;;13.60;56.00;;;;;;4876569;28;89748;-79
2024/01/12 08:56:19;;;;;;;122.57;56.85;;;13.70;56.00;;;;;;4876616;28;90394;-79
2024/01/12 08:58:45;;;;;;;120.10;55.88;;;13.70;56.30;;;;;;4882257;28;90021;-78
2024/01/12 09:01:13;;;;;;;122.25;56.63;;;13.70;55.90;;;;;;4903247;28;88768;-82
2024/01/12 09:03:38;;;;;;;122.00;56.55;;;13.70;55.90;;;;;;4881530;28;90777;-83
2024/01/12 09:06:04;;;;;;;120.38;56.13;;;13.80;56.00;;;;;;4884343;28;90119;-87
2024/01/12 09:08:30;;;;;;;124.55;56.83;;;13.80;56.40;;;;;;4881311;28;89262;-80
2024/01/12 09:10:56;;;;;;;121.78;56.05;;;13.80;56.60;;;;;;4881696;28;91014;-81
2024/01/12 09:13:21;;;;;;;124.72;56.42;;;13.80;56.40;;;;;;4881642;28;89360;-80
2024/01/12 09:15:47;;;;;;;121.68;56.20;;;13.90;56.30;;;;;;4887352;28;91644;-77
2024/01/12 09:18:13;;;;;;;123.53;56.20;;;13.90;56.20;;;;;;4882415;28;91319;-75
2024/01/12 09:20:38;;;;;;;126.90;57.30;;;13.90;56.90;;;;;;4882041;28;90056;-76
2024/01/12 09:23:05;;;;;;;128.38;56.78;;;13.90;57.60;;;;;;4881767;28;90303;-77
2024/01/12 09:25:32;;;;;;;124.65;56.75;;;14.00;57.80;;;;;;4880269;28;90076;-78
2024/01/12 09:27:58;;;;;;;127.75;57.28;;;14.00;57.70;;;;;;4885967;28;90443;-76
2024/01/12 09:30:23;;;;;;;128.50;57.75;;;14.00;57.60;;;;;;4882427;28;93490;-77
2024/01/12 09:32:49;;;;;;;126.18;57.30;;;14.00;57.40;;;;;;4879588;28;88698;-77
2024/01/12 09:35:15;;;;;;;130.13;57.42;;;14.10;57.60;;;;;;4874826;28;90278;-77
2024/01/12 09:37:41;;;;;;;128.75;57.33;;;14.10;58.10;;;;;;4873932;28;90937;-79
2024/01/12 09:40:07;;;;;;;130.48;57.67;;;14.10;58.30;;;;;;4885272;28;90975;-78
2024/01/12 09:42:33;;;;;;;132.43;57.40;;;14.10;58.60;;;;;;4886424;28;90262;-80
2024/01/12 09:45:02;;;;;;;125.65;57.60;;;14.10;58.70;;;;;;4879406;28;92595;-80
2024/01/12 09:47:28;;;;;;;133.82;58.30;;;14.10;58.70;;;;;;4879552;28;89789;-80
2024/01/12 09:49:54;;;;;;;126.22;57.85;;;14.10;58.60;;;;;;4879918;28;89464;-80
2024/01/12 09:52:20;;;;;;;130.15;58.40;;;14.10;58.30;;;;;;4882841;28;90401;-78
2024/01/12 09:54:46;;;;;;;135.85;57.88;;;14.10;58.70;;;;;;4880443;28;90623;-79
2024/01/12 09:57:13;;;;;;;125.85;57.15;;;14.10;58.60;;;;;;4904290;28;89906;-78
2024/01/12 09:59:39;;;;;;;129.98;58.35;;;14.10;58.50;;;;;;4914812;28;89188;-79
2024/01/12 10:02:08;;;;;;;131.65;58.47;;;14.10;58.40;;;;;;4909617;28;89259;-79
2024/01/12 10:04:35;;;;;;;128.35;57.88;;;14.20;58.40;;;;;;4880602;28;90794;-80
2024/01/12 10:07:00;;;;;;;141.00;58.60;;;14.10;58.70;;;;;;4884076;28;91739;-80
2024/01/12 10:09:27;;;;;;;133.38;59.00;;;14.20;59.40;;;;;;4873926;28;91567;-82
2024/01/12 10:11:54;;;;;;;130.55;58.72;;;14.20;60.50;;;;;;4880188;28;89264;-80
2024/01/12 10:14:25;;;;;;;132.15;59.45;;;14.20;60.60;;;;;;4879988;28;89887;-84
2024/01/12 10:16:59;;;;;;;133.27;59.00;;;14.30;60.20;;;;;;4880570;28;88910;-82
2024/01/12 10:19:28;;;;;;;133.43;58.33;;;14.30;59.80;;;;;;4862611;28;90679;-82
2024/01/12 10:21:54;;;;;;;130.32;58.80;;;14.30;59.60;;;;;;4880610;28;93175;-83
2024/01/12 10:24:21;;;;;;;133.85;58.97;;;14.30;59.30;;;;;;4882495;28;90470;-82
2024/01/12 10:26:49;;;;;;;133.82;59.17;;;14.40;59.20;;;;;;4881030;28;89872;-75
2024/01/12 10:29:15;;;;;;;133.50;60.03;;;14.40;59.40;;;;;;4884612;28;90444;-82
2024/01/12 10:31:43;;;;;;;135.57;58.90;;;14.40;59.30;;;;;;4887799;28;88909;-83
2024/01/12 10:34:11;;;;;;;130.70;59.17;;;14.40;59.40;;;;;;4888069;28;93500;-82
2024/01/12 10:36:38;;;;;;;134.48;59.58;;;14.40;59.70;;;;;;4887854;28;90018;-83
2024/01/12 10:39:07;;;;;;;130.65;59.47;;;14.40;59.80;;;;;;4886252;28;90383;-83
2024/01/12 10:41:34;;;;;;;134.50;60.22;;;14.30;59.90;;;;;;4887861;28;88889;-82
2024/01/12 10:44:05;;;;;;;134.18;60.88;;;14.30;56.80;;;;;;4883944;28;92477;-83
2024/01/12 10:46:30;;;;;;;139.63;60.60;;;14.30;59.30;;;;;;4879231;28;90340;-77
2024/01/12 10:49:10;;;;;;;147.82;66.93;;;14.40;60.00;;;;;;4884108;28;89862;-83
2024/01/12 10:51:41;;;;;;;152.38;71.22;;;14.40;60.00;;;;;;4887355;28;89471;-76
2024/01/12 10:54:19;;;;;;;157.32;74.45;;;14.40;60.20;;;;;;4881615;28;91001;-76
2024/01/12 10:56:45;;;;;;;157.45;75.47;;;14.30;59.50;;;;;;4882006;28;92528;-76
2024/01/12 10:59:12;;;;;;;149.00;70.45;;;14.20;59.50;;;;;;4883119;28;89902;-78
2024/01/12 11:01:38;;;;;;;143.32;67.88;;;14.10;59.60;;;;;;4887381;28;89746;-77
2024/01/12 11:04:05;;;;;;;148.95;68.35;;;14.10;59.60;;;;;;4890119;28;89846;-78
2024/01/12 11:06:31;;;;;;;145.63;66.20;;;14.10;59.60;;;;;;4882184;28;89968;-77
2024/01/12 11:08:58;;;;;;;146.85;66.95;;;14.10;59.50;;;;;;4888095;28;89771;-76
2024/01/12 11:11:40;;;;;;;145.35;65.28;;;14.10;59.30;;;;;;4882731;28;90053;-76
2024/01/12 11:14:07;;;;;;;138.80;64.05;;;14.10;59.20;;;;;;4883459;28;89407;-79
2024/01/12 11:16:32;;;;;;;138.98;64.22;;;14.20;59.00;;;;;;4891435;28;92545;-84
2024/01/12 11:18:58;;;;;;;141.05;64.50;;;14.30;58.70;;;;;;4887714;28;90249;-87
2024/01/12 11:21:25;;;;;;;138.30;63.25;;;14.30;58.60;;;;;;4892102;28;89256;-81
2024/01/12 11:23:51;;;;;;;135.55;62.65;;;14.50;58.70;;;;;;4891175;28;93050;-83
2024/01/12 11:26:18;;;;;;;136.52;62.55;;;14.70;58.60;;;;;;4886309;28;90620;-79
2024/01/12 11:28:43;;;;;;;135.77;62.38;;;14.80;57.90;;;;;;4886381;28;89431;-78
2024/01/12 11:31:09;;;;;;;140.70;62.38;;;14.70;58.00;;;;;;4878216;28;90322;-79
2024/01/12 11:33:41;;;;;;;137.95;61.50;;;14.60;58.10;;;;;;4867694;28;90738;-84
2024/01/12 11:36:14;;;;;;;135.02;62.05;;;14.50;58.30;;;;;;4883691;28;90076;-83
2024/01/12 11:38:40;;;;;;;137.38;61.83;;;14.40;58.30;;;;;;4882653;28;90077;-85
2024/01/12 11:41:14;;;;;;;135.18;61.30;;;14.40;58.80;;;;;;4878413;28;90227;-84
2024/01/12 11:43:47;;;;;;;130.32;60.97;;;14.30;58.40;;;;;;4884037;28;90227;-84
2024/01/12 11:46:12;;;;;;;133.73;59.60;;;14.30;58.60;;;;;;4880597;28;92472;-85
2024/01/12 11:48:38;;;;;;;133.90;60.60;;;14.30;58.70;;;;;;4885141;28;89170;-81
2024/01/12 11:51:04;;;;;;;127.10;59.50;;;14.30;58.60;;;;;;4882016;28;89528;-85
2024/01/12 11:53:32;;;;;;;129.25;59.40;;;14.40;58.60;;;;;;4889943;28;89749;-84
2024/01/12 11:55:57;;;;;;;132.77;59.28;;;14.40;58.30;;;;;;4885647;28;93029;-83
2024/01/12 11:58:23;;;;;;;129.48;59.35;;;14.40;58.10;;;;;;4887164;28;90835;-84
2024/01/12 12:00:49;;;;;;;133.27;59.75;;;14.40;58.10;;;;;;4870791;28;89854;-84
2024/01/12 12:03:15;;;;;;;128.63;59.25;;;14.50;58.20;;;;;;4877443;28;92885;-81
2024/01/12 12:05:41;;;;;;;131.98;59.45;;;14.50;58.20;;;;;;4869387;28;91671;-80
2024/01/12 12:08:06;;;;;;;130.77;59.22;;;14.60;57.70;;;;;;4878615;28;91057;-78
2024/01/12 12:10:32;;;;;;;128.45;58.13;;;14.50;57.60;;;;;;4882311;28;89824;-77
2024/01/12 12:12:58;;;;;;;130.15;58.50;;;14.50;57.60;;;;;;4882272;28;90592;-79